createdAt,value
2023-04-18T08:09:06.063Z,99534.77
2023-04-18T08:11:46.469Z,99534.27
2023-04-18T08:14:23.641Z,99536.78
2023-04-18T08:16:55.229Z,99540.33
2023-04-18T08:19:42.648Z,99540.38
2023-04-18T08:25:27.407Z,99541.81
2023-04-18T08:28:04.161Z,99540.85
2023-04-18T08:30:48.066Z,99535.70
2023-04-18T08:33:23.784Z,99543.88
2023-04-18T08:36:18.706Z,99545.19
2023-04-18T08:38:59.068Z,99547.63
2023-04-18T08:41:38.482Z,99549.98
2023-04-18T08:44:08.319Z,99553.56
2023-04-18T08:46:38.836Z,99554.35
2023-04-18T08:49:12.018Z,99556.05
2023-04-18T08:51:52.813Z,99558.45
2023-04-18T08:54:33.826Z,99556.92
2023-04-18T08:57:17.184Z,99560.63
2023-04-18T08:59:50.350Z,99563.23
2023-04-18T09:02:47.538Z,99564.92
2023-04-18T09:05:26.141Z,99563.21
2023-04-18T09:07:58.811Z,99565.29
2023-04-18T09:10:30.745Z,99564.70
2023-04-18T09:13:03.906Z,99563.79
2023-04-18T09:15:35.201Z,99563.28
2023-04-18T09:18:11.299Z,99566.48
2023-04-18T09:20:43.215Z,99565.99
2023-04-18T09:23:24.933Z,99561.55
2023-04-18T09:25:55.313Z,99560.92
2023-04-18T09:28:33.717Z,99557.58
2023-04-18T09:31:12.421Z,99560.41
2023-04-18T09:33:53.085Z,99558.95
2023-04-18T09:36:31.823Z,99562.60
2023-04-18T09:39:01.236Z,99564.61
2023-04-18T09:41:34.367Z,99564.73
2023-04-18T09:44:15.971Z,99562.56
2023-04-18T09:46:49.500Z,99566.64
2023-04-18T09:49:21.861Z,99567.46
2023-04-18T09:51:53.992Z,99567.54
2023-04-18T09:54:26.494Z,99571.30
2023-04-18T09:56:56.914Z,99569.26
2023-04-18T09:59:31.872Z,99566.80
2023-04-18T10:02:05.855Z,99567.89
2023-04-18T10:04:37.445Z,99566.36
2023-04-18T10:07:07.781Z,99568.29
2023-04-18T10:09:37.628Z,99567.79
2023-04-18T10:12:07.773Z,99568.27
2023-04-18T10:14:38.933Z,99571.89
2023-04-18T10:17:09.922Z,99571.14
2023-04-18T10:19:42.424Z,99571.55
2023-04-18T10:22:13.603Z,99569.05
2023-04-18T10:24:56.623Z,99566.17
2023-04-18T10:27:47.331Z,99566.42
2023-04-18T10:30:18.053Z,99565.62
2023-04-18T10:32:47.220Z,99569.36
2023-04-18T10:35:16.117Z,99562.40
2023-04-18T10:38:09.376Z,99559.20
2023-04-18T10:40:38.521Z,99556.04
2023-04-18T10:43:08.138Z,99562.16
2023-04-18T10:45:37.716Z,99565.00
2023-04-18T10:48:33.963Z,99564.69
2023-04-18T10:51:35.373Z,99561.45
2023-04-18T10:54:07.756Z,99557.84
2023-04-18T10:56:40.014Z,99553.72
2023-04-18T10:59:13.557Z,99552.03
2023-04-18T11:01:49.937Z,99554.14
2023-04-18T11:04:22.735Z,99551.71
2023-04-18T11:06:57.651Z,99553.65
2023-04-18T11:09:26.646Z,99556.70
2023-04-18T11:12:11.243Z,99558.52
2023-04-18T11:14:46.244Z,99555.81
2023-04-18T11:17:25.835Z,99557.16
2023-04-18T11:20:06.336Z,99561.61
2023-04-18T11:22:52.981Z,99558.41
2023-04-18T11:25:26.456Z,99560.36
2023-04-18T11:27:56.144Z,99558.30
2023-04-18T11:30:26.260Z,99559.95
2023-04-18T11:32:57.683Z,99559.15
2023-04-18T11:35:27.767Z,99557.65
2023-04-18T11:37:58.730Z,99553.07
2023-04-18T11:40:28.015Z,99549.60
2023-04-18T11:42:57.037Z,99546.42
2023-04-18T11:45:26.212Z,99551.67
2023-04-18T11:47:59.994Z,99549.80
2023-04-18T11:50:30.212Z,99544.08
2023-04-18T11:53:00.030Z,99547.29
2023-04-18T11:55:29.606Z,99545.19
2023-04-18T11:58:00.556Z,99542.88
2023-04-18T12:00:39.103Z,99539.93
2023-04-18T12:03:19.237Z,99541.95
2023-04-18T12:05:48.499Z,99540.81
2023-04-18T12:08:21.882Z,99538.42
2023-04-18T12:10:53.731Z,99541.74
2023-04-18T12:13:32.014Z,99541.44
2023-04-18T12:16:02.553Z,99541.91
2023-04-18T12:18:33.053Z,99543.04
2023-04-18T12:21:06.119Z,99543.66
2023-04-18T12:23:40.582Z,99543.64
2023-04-18T12:26:18.447Z,99546.17
2023-04-18T12:28:51.751Z,99542.36
2023-04-18T12:31:22.763Z,99548.06
2023-04-18T12:33:51.860Z,99547.14
2023-04-18T12:36:22.450Z,99547.09
2023-04-18T12:38:51.873Z,99548.75
2023-04-18T12:41:22.584Z,99550.68
2023-04-18T12:43:51.493Z,99550.84
2023-04-18T12:46:20.208Z,99556.39
2023-04-18T12:48:49.522Z,99551.86
2023-04-18T12:51:18.383Z,99550.67
2023-04-18T12:53:47.028Z,99549.76
2023-04-18T12:56:15.964Z,99550.55
2023-04-18T12:58:45.922Z,99547.61
2023-04-18T13:01:14.798Z,99552.17
2023-04-18T13:03:45.622Z,99550.86
2023-04-18T13:06:18.919Z,99550.06
2023-04-18T13:08:50.972Z,99549.27
2023-04-18T13:11:21.178Z,99550.49
2023-04-18T13:13:51.540Z,99548.92
2023-04-18T13:16:21.857Z,99548.00
2023-04-18T13:18:53.476Z,99544.76
2023-04-18T13:21:25.348Z,99543.34
2023-04-18T13:23:57.198Z,99546.91
2023-04-18T13:26:37.958Z,99549.57
2023-04-18T13:29:07.770Z,99545.02
2023-04-18T13:31:40.182Z,99546.82
2023-04-18T13:34:09.251Z,99549.48
2023-04-18T13:36:39.218Z,99548.30
2023-04-18T13:39:08.920Z,99547.27
2023-04-18T13:41:43.557Z,99551.30
2023-04-18T13:44:12.509Z,99551.66
2023-04-18T13:46:42.201Z,99549.77
2023-04-18T13:49:11.410Z,99550.48
2023-04-18T13:51:41.330Z,99548.50
2023-04-18T13:54:10.094Z,99547.05
2023-04-18T13:56:39.468Z,99544.73
2023-04-18T13:59:09.365Z,99543.83
2023-04-18T14:01:38.894Z,99545.89
2023-04-18T14:04:28.271Z,99543.52
2023-04-18T14:07:06.649Z,99544.08
2023-04-18T14:09:36.055Z,99550.38
2023-04-18T14:12:06.292Z,99551.92
2023-04-18T14:14:35.409Z,99553.76
2023-04-18T14:17:06.864Z,99555.33
2023-04-18T14:19:37.520Z,99553.92
2023-04-18T14:22:07.871Z,99549.55
2023-04-18T14:24:37.450Z,99547.79
2023-04-18T14:27:06.155Z,99550.33
2023-04-18T14:29:34.950Z,99550.73
2023-04-18T14:32:03.674Z,99550.59
2023-04-18T14:34:33.713Z,99555.49
2023-04-18T14:37:04.284Z,99555.01
2023-04-18T14:39:32.994Z,99562.81
2023-04-18T14:42:01.990Z,99558.41
2023-04-18T14:44:32.011Z,99560.01
2023-04-18T14:47:01.863Z,99559.03
2023-04-18T14:49:30.696Z,99556.33
2023-04-18T14:52:00.869Z,99557.08
2023-04-18T14:54:31.604Z,99558.13
2023-04-18T14:57:02.164Z,99555.85
2023-04-18T14:59:31.642Z,99553.56
2023-04-18T15:02:01.037Z,99551.86
2023-04-18T15:04:31.125Z,99549.31
2023-04-18T15:06:59.790Z,99550.14
2023-04-18T15:09:29.986Z,99545.33
2023-04-18T15:12:00.441Z,99545.52
2023-04-18T15:14:30.548Z,99546.86
2023-04-18T15:17:00.164Z,99551.44
2023-04-18T15:19:49.463Z,99544.25
2023-04-18T15:22:18.306Z,99541.23
2023-04-18T15:24:47.848Z,99543.75
2023-04-18T15:27:17.771Z,99545.79
2023-04-18T15:29:47.363Z,99543.34
2023-04-18T15:32:16.654Z,99544.30
2023-04-18T15:34:45.928Z,99540.55
2023-04-18T15:37:16.476Z,99541.59
2023-04-18T15:39:45.958Z,99539.86
2023-04-18T15:42:14.765Z,99543.69
2023-04-18T15:44:43.827Z,99543.98
2023-04-18T15:47:12.378Z,99540.05
2023-04-18T15:49:41.246Z,99539.80
2023-04-18T15:52:10.541Z,99537.70
2023-04-18T15:54:42.038Z,99535.71
2023-04-18T15:57:11.649Z,99532.05
2023-04-18T15:59:41.240Z,99531.80
2023-04-18T16:02:10.593Z,99532.45
2023-04-18T16:04:39.509Z,99533.65
2023-04-18T16:11:01.546Z,99533.04
2023-04-18T16:13:31.351Z,99534.88
2023-04-18T16:15:59.820Z,99535.00
2023-04-18T16:18:28.431Z,99536.06
2023-04-18T16:20:58.991Z,99538.19
2023-04-18T16:23:27.532Z,99534.39
2023-04-18T16:25:57.555Z,99537.17
2023-04-18T16:28:27.244Z,99535.86
2023-04-18T16:30:56.990Z,99536.08
2023-04-18T16:33:26.263Z,99537.58
2023-04-18T16:35:59.317Z,99534.91
2023-04-18T16:38:28.867Z,99540.55
2023-04-18T16:40:59.078Z,99537.66
2023-04-18T16:43:29.578Z,99539.38
2023-04-18T16:45:58.343Z,99538.65
2023-04-18T16:48:29.493Z,99536.69
2023-04-18T16:50:59.108Z,99535.74
2023-04-18T16:53:29.243Z,99536.93
2023-04-18T16:55:58.130Z,99537.98
2023-04-18T16:58:27.262Z,99536.41
2023-04-18T17:00:56.066Z,99537.05
2023-04-18T17:03:25.194Z,99536.83
2023-04-18T17:05:57.430Z,99536.15
2023-04-18T17:08:28.854Z,99534.89
2023-04-18T17:10:59.931Z,99532.40
2023-04-18T17:13:31.819Z,99534.65
2023-04-18T17:16:00.421Z,99538.77
2023-04-18T17:18:30.115Z,99538.37
2023-04-18T17:20:59.304Z,99541.42
2023-04-18T17:23:29.196Z,99542.24
2023-04-18T17:25:59.197Z,99543.73
2023-04-18T17:28:28.565Z,99546.64
2023-04-18T17:30:58.670Z,99541.67
2023-04-18T17:33:29.489Z,99545.23
2023-04-18T17:35:59.168Z,99548.83
2023-04-18T17:38:28.528Z,99549.17
2023-04-18T17:41:00.201Z,99542.57
2023-04-18T17:43:29.762Z,99541.50
2023-04-18T17:46:01.911Z,99544.59
2023-04-18T17:48:30.959Z,99549.09
2023-04-18T17:50:59.495Z,99546.30
2023-04-18T17:53:31.462Z,99544.54
2023-04-18T17:56:02.306Z,99544.16
2023-04-18T17:58:31.874Z,99543.43
2023-04-18T18:01:00.940Z,99542.02
2023-04-18T18:03:31.332Z,99539.91
2023-04-18T18:06:00.497Z,99539.89
2023-04-18T18:08:30.965Z,99539.84
2023-04-18T18:11:02.007Z,99540.73
2023-04-18T18:13:30.938Z,99541.45
2023-04-18T18:15:59.495Z,99541.97
2023-04-18T18:18:30.163Z,99543.44
2023-04-18T18:20:59.287Z,99546.04
2023-04-18T18:23:27.858Z,99547.32
2023-04-18T18:25:57.257Z,99545.17
2023-04-18T18:28:26.268Z,99544.96
2023-04-18T18:30:55.124Z,99548.57
2023-04-18T18:33:25.356Z,99546.31
2023-04-18T18:35:55.754Z,99548.90
2023-04-18T18:38:26.692Z,99549.77
2023-04-18T18:40:55.967Z,99551.88
2023-04-18T18:43:26.610Z,99548.40
2023-04-18T18:45:56.280Z,99550.45
2023-04-18T18:48:25.105Z,99552.72
2023-04-18T18:50:54.410Z,99553.37
2023-04-18T18:53:23.557Z,99553.65
2023-04-18T18:55:52.323Z,99551.39
2023-04-18T18:58:22.065Z,99552.95
2023-04-18T19:00:51.870Z,99551.97
2023-04-18T19:03:23.814Z,99551.79
2023-04-18T19:05:52.966Z,99551.77
2023-04-18T19:08:22.233Z,99550.40
2023-04-18T19:10:51.737Z,99554.02
2023-04-18T19:13:23.431Z,99552.61
2023-04-18T19:15:52.700Z,99552.66
2023-04-18T19:18:21.614Z,99550.06
2023-04-18T19:20:51.402Z,99546.23
2023-04-18T19:23:20.293Z,99546.67
2023-04-18T19:25:48.769Z,99541.02
2023-04-18T19:28:18.851Z,99539.90
2023-04-18T19:30:47.601Z,99544.89
2023-04-18T19:33:16.920Z,99542.42
2023-04-18T19:35:45.908Z,99542.02
2023-04-18T19:38:15.307Z,99541.67
2023-04-18T19:40:44.555Z,99541.98
2023-04-18T19:43:14.112Z,99535.55
2023-04-18T19:45:43.927Z,99535.22
2023-04-18T19:48:13.291Z,99531.88
2023-04-18T19:50:42.757Z,99533.36
2023-04-18T19:53:12.194Z,99534.88
2023-04-18T19:55:41.956Z,99533.88
2023-04-18T19:58:12.529Z,99533.08
2023-04-18T20:00:41.828Z,99528.92
2023-04-18T20:03:11.657Z,99527.20
2023-04-18T20:05:40.996Z,99535.13
2023-04-18T20:08:10.050Z,99528.15
2023-04-18T20:10:38.960Z,99529.15
2023-04-18T20:13:08.701Z,99530.50
2023-04-18T20:15:37.849Z,99528.80
2023-04-18T20:18:06.995Z,99528.14
2023-04-18T20:20:36.362Z,99522.58
2023-04-18T20:23:05.177Z,99522.44
2023-04-18T20:25:35.432Z,99521.98
2023-04-18T20:28:05.321Z,99519.06
2023-04-18T20:30:36.433Z,99520.02
2023-04-18T20:33:06.738Z,99519.92
2023-04-18T20:35:35.625Z,99513.17
2023-04-18T20:38:07.927Z,99515.06
2023-04-18T20:40:39.346Z,99513.95
2023-04-18T20:43:09.291Z,99513.60
2023-04-18T20:45:38.853Z,99510.48
2023-04-18T20:48:08.072Z,99509.23
2023-04-18T20:50:38.027Z,99510.80
2023-04-18T20:53:06.838Z,99513.81
2023-04-18T20:55:35.412Z,99507.61
2023-04-18T20:58:04.421Z,99504.13
2023-04-18T21:00:33.508Z,99504.34
2023-04-18T21:03:02.084Z,99500.95
2023-04-18T21:05:33.110Z,99502.77
2023-04-18T21:08:02.303Z,99499.49
2023-04-18T21:10:31.054Z,99499.52
2023-04-18T21:13:01.540Z,99493.58
2023-04-18T21:15:31.054Z,99488.83
2023-04-18T21:18:00.121Z,99490.51
2023-04-18T21:20:29.851Z,99485.26
2023-04-18T21:22:59.113Z,99483.64
2023-04-18T21:25:27.697Z,99485.57
2023-04-18T21:27:57.118Z,99479.02
2023-04-18T21:30:25.997Z,99479.73
2023-04-18T21:32:54.673Z,99479.95
2023-04-18T21:35:24.960Z,99479.09
2023-04-18T21:37:54.591Z,99477.57
2023-04-18T21:40:27.333Z,99478.58
2023-04-18T21:42:56.196Z,99477.65
2023-04-18T21:45:24.914Z,99473.62
2023-04-18T21:47:55.675Z,99472.66
2023-04-18T21:50:24.649Z,99469.66
2023-04-18T21:52:53.193Z,99465.36
2023-04-18T21:55:22.273Z,99464.33
2023-04-18T21:57:51.246Z,99457.06
2023-04-18T22:00:20.650Z,99456.39
2023-04-18T22:02:50.322Z,99455.71
2023-04-18T22:05:20.428Z,99453.09
2023-04-18T22:07:57.379Z,99451.04
2023-04-18T22:10:28.051Z,99448.93
2023-04-18T22:12:58.649Z,99447.70
2023-04-18T22:15:30.653Z,99444.04
2023-04-18T22:17:59.678Z,99437.95
2023-04-18T22:20:28.580Z,99436.17
2023-04-18T22:22:58.165Z,99431.86
2023-04-18T22:25:26.919Z,99427.88
2023-04-18T22:27:55.365Z,99428.59
2023-04-18T22:30:24.054Z,99426.11
2023-04-18T22:32:52.755Z,99422.76
2023-04-18T22:35:22.119Z,99425.09
2023-04-18T22:37:51.191Z,99420.83
2023-04-18T22:40:20.023Z,99417.64
2023-04-18T22:42:48.501Z,99414.46
2023-04-18T22:45:20.404Z,99415.65
2023-04-18T22:47:49.989Z,99411.12
2023-04-18T22:50:18.813Z,99408.38
2023-04-18T22:52:49.236Z,99403.19
2023-04-18T22:55:20.309Z,99406.67
2023-04-18T22:57:49.225Z,99401.17
2023-04-18T23:00:18.621Z,99399.30
2023-04-18T23:02:48.134Z,99393.55
2023-04-18T23:05:17.292Z,99396.98
2023-04-18T23:07:46.911Z,99399.34
2023-04-18T23:10:16.783Z,99392.47
2023-04-18T23:12:46.161Z,99388.39
2023-04-18T23:15:14.948Z,99385.90
2023-04-18T23:17:44.356Z,99384.93
2023-04-18T23:20:14.094Z,99384.16
2023-04-18T23:22:43.062Z,99383.05
2023-04-18T23:25:11.889Z,99380.38
2023-04-18T23:27:40.547Z,99376.86
2023-04-18T23:30:10.886Z,99371.33
2023-04-18T23:32:39.496Z,99367.88
2023-04-18T23:35:11.414Z,99366.70
2023-04-18T23:37:40.883Z,99370.34
2023-04-18T23:40:10.353Z,99372.08
2023-04-18T23:42:39.197Z,99363.56
2023-04-18T23:45:08.416Z,99363.00
2023-04-18T23:47:37.762Z,99358.38
2023-04-18T23:50:07.550Z,99360.86
2023-04-18T23:52:38.655Z,99354.73
2023-04-18T23:55:08.714Z,99351.91
2023-04-18T23:57:37.253Z,99348.27
